Fort Davis, TX

7:14 AM CST on March 02, 2015 (GMT -0600)
Alpine | Change Station
CLOSE
Current Station
Airport
Location: Alpine,
Elevation: 4514 ft
Nearby Weather Stations

Elev 4514 ft 30.38 °N, 103.68 °W | Updated 2 hours ago

Overcast
Overcast
35 °F
Feels Like 28 °F
N
8
Wind Variable Wind from ENE

Today
High -- | Low -- °F
--% Chance of Precip.
Yesterday
High -- | Low -- °F
Precip. -- in
7:20 AM 6:54 PM
Waxing Gibbous, 91% visible
Pressure 30.28 in
Visibility 0.5 miles
Clouds Overcast 100 ft
Windchill 28 °F
Dew Point 35 °F
Humidity 99%
Rainfall 0.00 in
Snow Depth Not available.
UV 0 out of 12
Pollen 6.90 out of 12
Air Quality Not available.
Flu Activity Not available.
METAR KE38 021110Z AUTO 07007KT 1/2SM OVC001 02/02 A3028 RMK AO2 T00160015

More Conditions Fewer Conditions

Pressure 30.28 in
Visibility 0.5 miles
Clouds Overcast 100 ft
Windchill 28 °F
Dew Point 35 °F
Humidity 99%
Rainfall 0.00 in
Snow Depth Not available.
UV 0 out of 12
Pollen 6.90 out of 12
Air Quality Not available.
Flu Activity Not available.
METAR KE38 021110Z AUTO 07007KT 1/2SM OVC001 02/02 A3028 RMK AO2 T00160015

More Conditions Fewer Conditions

10-Day Weather Forecast

Almanac

Astronomy

Mar. 02, 2015 Rise Set
Actual Time
Civil Twilight
Nautical Twilight
Astronomical Twilight
Moon
Length of Visible Light
Length of Day
Tomorrow will be .
, % of the Moon is Illuminated

Today's Extremes

State Highs State Lows

Community

WunderPhotos

Upload Photos

1,801,781 photos uploaded!

WunderBlogs® & News

Nearby

Air Quality

  Air Quality AQ Index Pollutant
Not available.

Snow Depth

Station Depth Elevation

Earthquake Activity

City Distance Mag. Time & Date
Minimum magnitude displayed is 2.5.

Coastal Water Temperatures

Place Temperature

Nearby Weather Stations